createdAt,value
2022-10-13T00:02:05.021Z,7.22
2022-10-13T00:04:35.618Z,3.45
2022-10-13T00:07:05.367Z,5.53
2022-10-13T00:09:37.160Z,4.60
2022-10-13T00:12:07.275Z,5.00
2022-10-13T00:14:37.125Z,5.10
2022-10-13T00:17:06.886Z,5.90
2022-10-13T00:19:36.668Z,5.90
2022-10-13T00:22:06.970Z,4.90
2022-10-13T00:24:37.807Z,4.63
2022-10-13T00:27:07.508Z,7.82
2022-10-13T00:29:37.285Z,3.35
2022-10-13T00:32:07.674Z,4.72
2022-10-13T00:34:39.132Z,3.03
2022-10-13T00:37:09.675Z,4.03
2022-10-13T00:39:41.309Z,7.25
2022-10-13T00:42:14.521Z,3.38
2022-10-13T00:45:07.645Z,3.85
2022-10-13T00:47:42.289Z,5.30
2022-10-13T00:50:16.107Z,4.68
2022-10-13T00:52:50.191Z,3.20
2022-10-13T00:55:25.696Z,4.45
2022-10-13T00:57:56.382Z,5.32
2022-10-13T01:00:35.046Z,6.38
2022-10-13T01:03:05.657Z,4.60
2022-10-13T01:05:36.093Z,7.47
2022-10-13T01:08:07.074Z,7.32
2022-10-13T01:10:51.001Z,12.48
2022-10-13T01:13:26.552Z,8.27
2022-10-13T01:16:02.006Z,6.53
2022-10-13T01:18:42.676Z,6.80
2022-10-13T01:21:25.896Z,5.32
2022-10-13T01:24:29.585Z,4.00
2022-10-13T01:27:21.136Z,7.07
2022-10-13T01:30:08.496Z,4.20
2022-10-13T01:33:20.942Z,4.38
2022-10-13T01:36:04.675Z,3.63
2022-10-13T01:38:47.130Z,4.90
2022-10-13T01:41:22.442Z,5.88
2022-10-13T01:43:59.360Z,3.38
2022-10-13T01:46:34.873Z,6.68
2022-10-13T01:49:08.719Z,3.70
2022-10-13T01:51:40.280Z,3.03
2022-10-13T01:54:09.688Z,3.30
2022-10-13T01:56:38.870Z,5.32
2022-10-13T01:59:11.805Z,3.28
2022-10-13T02:01:56.579Z,6.13
2022-10-13T02:04:43.709Z,3.75
2022-10-13T02:07:22.951Z,3.47
2022-10-13T02:09:59.198Z,3.10
2022-10-13T02:12:35.459Z,6.00
2022-10-13T02:15:08.944Z,5.70
2022-10-13T02:17:43.876Z,2.67
2022-10-13T02:20:16.019Z,5.60
2022-10-13T02:22:47.841Z,3.22
2022-10-13T02:25:17.724Z,3.78
2022-10-13T02:27:47.651Z,4.22
2022-10-13T02:30:25.809Z,3.58
2022-10-13T02:32:56.871Z,3.63
2022-10-13T02:35:27.123Z,4.50
2022-10-13T02:37:57.799Z,3.17
2022-10-13T02:40:27.743Z,3.38
2022-10-13T02:42:57.648Z,5.32
2022-10-13T02:45:27.572Z,3.67
2022-10-13T02:47:59.335Z,7.68
2022-10-13T02:50:29.667Z,5.50
2022-10-13T02:53:01.129Z,4.00
2022-10-13T02:55:30.655Z,5.68
2022-10-13T02:58:07.809Z,5.20
2022-10-13T03:00:39.702Z,5.53
2022-10-13T03:03:12.641Z,3.75
2022-10-13T03:05:43.279Z,5.63
2022-10-13T03:08:13.029Z,3.67
2022-10-13T03:10:45.213Z,3.67
2022-10-13T03:13:22.725Z,4.22
2022-10-13T03:15:54.089Z,6.00
2022-10-13T03:19:46.134Z,5.57
2022-10-13T03:22:21.515Z,7.60
2022-10-13T03:24:54.892Z,6.60
2022-10-13T03:27:24.499Z,4.93
2022-10-13T03:29:54.128Z,4.60
2022-10-13T03:32:23.965Z,8.75
2022-10-13T03:34:54.600Z,5.18
2022-10-13T03:37:25.768Z,6.63
2022-10-13T03:40:20.885Z,5.05
2022-10-13T03:42:50.334Z,6.90
2022-10-13T03:45:21.514Z,3.40
2022-10-13T03:48:15.332Z,5.70
2022-10-13T03:50:45.503Z,5.13
2022-10-13T03:53:33.024Z,5.57
2022-10-13T03:56:09.459Z,5.53
2022-10-13T03:58:54.711Z,6.20
2022-10-13T04:01:33.153Z,7.57
2022-10-13T04:04:08.462Z,7.32
2022-10-13T04:06:39.730Z,7.47
2022-10-13T04:09:13.809Z,7.10
2022-10-13T04:15:28.630Z,6.63
2022-10-13T04:17:57.968Z,5.50
2022-10-13T04:20:28.115Z,6.65
2022-10-13T04:22:57.615Z,4.75
2022-10-13T04:25:30.169Z,5.43
2022-10-13T04:27:59.596Z,5.95
2022-10-13T04:30:29.672Z,4.88
2022-10-13T04:32:59.345Z,5.60
2022-10-13T04:35:28.861Z,4.60
2022-10-13T04:37:58.840Z,7.00
2022-10-13T04:40:44.385Z,5.00
2022-10-13T04:46:02.183Z,5.75
2022-10-13T04:48:32.609Z,8.00
2022-10-13T04:51:05.370Z,6.00
2022-10-13T04:53:35.120Z,4.80
2022-10-13T04:56:08.590Z,5.78
2022-10-13T04:58:38.627Z,6.32
2022-10-13T05:01:16.516Z,3.65
2022-10-13T05:03:51.657Z,4.82
2022-10-13T05:06:22.879Z,4.65
2022-10-13T05:08:58.706Z,8.48
2022-10-13T05:11:30.138Z,6.22
2022-10-13T05:13:59.888Z,3.88
2022-10-13T05:16:30.706Z,7.75
2022-10-13T05:19:01.013Z,5.50
2022-10-13T05:21:31.178Z,3.53
2022-10-13T05:24:02.507Z,6.28
2022-10-13T05:26:33.805Z,11.70
2022-10-13T05:29:05.427Z,3.15
2022-10-13T05:31:37.663Z,5.50
2022-10-13T05:34:12.077Z,6.60
2022-10-13T05:36:43.787Z,7.18
2022-10-13T05:39:19.281Z,7.00
2022-10-13T05:42:13.569Z,5.30
2022-10-13T05:44:59.361Z,5.40
2022-10-13T05:47:39.856Z,4.70
2022-10-13T05:50:20.025Z,13.35
2022-10-13T05:53:02.428Z,6.45
2022-10-13T05:55:39.535Z,5.03
2022-10-13T05:58:13.014Z,3.15
2022-10-13T06:00:47.569Z,5.15
2022-10-13T06:03:23.472Z,4.35
2022-10-13T06:05:55.894Z,5.45
2022-10-13T06:08:25.656Z,5.95
2022-10-13T06:10:55.329Z,4.05
2022-10-13T06:13:27.470Z,7.30
2022-10-13T06:16:02.105Z,4.63
2022-10-13T06:18:38.489Z,3.88
2022-10-13T06:22:31.901Z,4.32
2022-10-13T06:25:04.740Z,3.40
2022-10-13T06:27:36.018Z,5.13
2022-10-13T06:31:03.865Z,3.45
2022-10-13T06:33:37.524Z,3.80
2022-10-13T06:36:09.204Z,4.50
2022-10-13T06:38:39.370Z,8.40
2022-10-13T06:41:09.607Z,5.93
2022-10-13T06:43:40.630Z,8.93
2022-10-13T06:46:14.924Z,5.38
2022-10-13T06:48:46.908Z,3.83
2022-10-13T06:51:17.696Z,6.18
2022-10-13T06:53:48.134Z,5.20
2022-10-13T06:56:17.897Z,7.18
2022-10-13T06:58:58.133Z,4.53
2022-10-13T07:01:41.819Z,5.68
2022-10-13T07:07:27.479Z,6.65
2022-10-13T07:10:03.179Z,9.90
2022-10-13T07:12:39.286Z,5.47
2022-10-13T07:15:13.143Z,5.00
2022-10-13T07:17:46.500Z,5.85
2022-10-13T07:20:21.549Z,3.35
2022-10-13T07:22:57.530Z,5.75
2022-10-13T07:25:32.059Z,4.43
2022-10-13T07:28:04.590Z,5.38
2022-10-13T07:30:35.962Z,6.40
2022-10-13T07:33:06.473Z,4.05
2022-10-13T07:35:40.767Z,4.13
2022-10-13T07:38:10.917Z,4.72
2022-10-13T07:40:41.801Z,7.95
2022-10-13T07:43:12.124Z,7.15
2022-10-13T07:45:42.142Z,6.95
2022-10-13T07:48:17.273Z,7.88
2022-10-13T07:50:50.564Z,5.47
2022-10-13T07:53:20.538Z,4.70
2022-10-13T07:55:49.921Z,6.93
2022-10-13T07:58:20.369Z,6.32
2022-10-13T08:00:58.008Z,5.53
2022-10-13T08:03:29.169Z,8.15
2022-10-13T08:06:03.636Z,6.93
2022-10-13T08:08:33.676Z,10.60
2022-10-13T08:11:03.672Z,5.55
2022-10-13T08:13:38.489Z,7.55
2022-10-13T08:16:15.839Z,8.85
2022-10-13T08:18:47.435Z,6.75
2022-10-13T08:24:17.339Z,8.02
2022-10-13T08:26:48.857Z,6.70
2022-10-13T08:29:23.360Z,12.27
2022-10-13T08:31:54.443Z,8.23
2022-10-13T08:34:29.556Z,9.13
2022-10-13T08:37:02.165Z,9.52
2022-10-13T08:39:33.494Z,6.18
2022-10-13T08:42:04.045Z,9.90
2022-10-13T08:50:14.722Z,11.48
2022-10-13T08:52:50.961Z,9.43
2022-10-13T08:55:28.523Z,6.38
2022-10-13T08:58:00.313Z,5.07
2022-10-13T09:00:31.476Z,5.65
2022-10-13T09:03:20.379Z,6.72
2022-10-13T09:06:07.759Z,10.90
2022-10-13T09:08:54.090Z,6.63
2022-10-13T09:11:23.970Z,9.30
2022-10-13T09:13:57.655Z,6.03
2022-10-13T09:16:35.844Z,7.00
2022-10-13T09:19:22.532Z,6.70
2022-10-13T09:21:53.415Z,8.18
2022-10-13T09:24:26.433Z,7.95
2022-10-13T09:27:07.093Z,5.32
2022-10-13T09:29:46.671Z,5.07
2022-10-13T09:34:48.514Z,3.28
2022-10-13T09:37:22.726Z,6.15
2022-10-13T09:40:15.482Z,5.82
2022-10-13T09:42:53.183Z,3.50
2022-10-13T09:45:26.440Z,4.50
2022-10-13T09:48:01.352Z,3.67
2022-10-13T09:50:37.660Z,3.35
2022-10-13T09:53:24.121Z,4.53
2022-10-13T09:56:11.261Z,7.07
2022-10-13T10:01:45.004Z,4.63
2022-10-13T10:04:22.366Z,4.60
2022-10-13T10:07:00.617Z,4.07
2022-10-13T10:15:02.454Z,2.63
2022-10-13T10:24:36.787Z,2.88
2022-10-13T10:29:04.516Z,2.80
2022-10-13T10:32:59.982Z,2.22
2022-10-13T10:58:58.267Z,4.07
2022-10-13T11:02:58.008Z,3.03
2022-10-13T11:06:38.165Z,7.70
2022-10-13T11:09:08.550Z,4.38
2022-10-13T11:11:42.555Z,5.55
2022-10-13T11:14:37.525Z,3.08
2022-10-13T11:17:21.530Z,4.60
2022-10-13T11:19:55.037Z,3.38
2022-10-13T11:22:26.589Z,5.20
2022-10-13T11:25:00.456Z,4.80
2022-10-13T11:27:48.778Z,3.47
2022-10-13T11:30:43.990Z,2.85
2022-10-13T11:33:53.130Z,4.68
2022-10-13T11:36:40.936Z,4.13
2022-10-13T11:39:59.571Z,3.33
2022-10-13T11:43:16.083Z,2.63
2022-10-13T11:46:21.285Z,4.93
2022-10-13T11:49:16.185Z,3.70
2022-10-13T11:52:15.229Z,2.45
2022-10-13T11:54:52.159Z,5.00
2022-10-13T11:57:23.973Z,7.32
2022-10-13T11:59:56.159Z,3.75
2022-10-13T12:02:33.563Z,3.55
2022-10-13T12:05:09.877Z,3.15
2022-10-13T12:07:44.533Z,2.63
2022-10-13T12:10:22.529Z,5.35
2022-10-13T12:12:53.134Z,2.97
2022-10-13T12:15:39.129Z,2.20
2022-10-13T12:18:24.092Z,2.92
2022-10-13T12:20:56.820Z,4.10
2022-10-13T12:23:28.773Z,2.50
2022-10-13T12:26:00.386Z,2.00
2022-10-13T12:28:32.260Z,2.35
2022-10-13T12:31:02.785Z,2.75
2022-10-13T12:33:35.677Z,2.15
2022-10-13T12:36:20.135Z,1.70
2022-10-13T12:38:52.922Z,1.60
2022-10-13T12:41:28.360Z,2.30
2022-10-13T12:44:01.092Z,3.20
2022-10-13T12:46:41.540Z,2.53
2022-10-13T12:49:21.956Z,2.28
2022-10-13T12:51:56.524Z,2.10
2022-10-13T12:54:34.289Z,3.20
2022-10-13T12:57:09.532Z,2.85
2022-10-13T12:59:44.086Z,3.58
2022-10-13T13:02:22.102Z,2.97
2022-10-13T13:04:51.976Z,3.47
2022-10-13T13:07:34.253Z,3.85
2022-10-13T13:10:21.320Z,5.60
2022-10-13T13:12:55.783Z,4.85
2022-10-13T13:15:44.234Z,4.03
2022-10-13T13:18:47.663Z,2.47
2022-10-13T13:21:22.259Z,2.72
2022-10-13T13:23:56.398Z,2.50
2022-10-13T13:26:57.873Z,2.53
2022-10-13T13:30:05.773Z,5.07
2022-10-13T13:33:29.507Z,2.97
2022-10-13T13:36:53.522Z,3.78
2022-10-13T13:39:46.920Z,4.03
2022-10-13T13:42:25.402Z,3.10
2022-10-13T13:45:01.403Z,2.63
2022-10-13T13:47:56.874Z,4.82
2022-10-13T13:50:35.992Z,5.68
2022-10-13T13:53:08.564Z,4.65
2022-10-13T13:55:45.664Z,3.28
2022-10-13T13:58:49.479Z,3.58
2022-10-13T14:01:20.568Z,4.97
2022-10-13T14:03:50.908Z,2.50
2022-10-13T14:06:23.959Z,3.28
2022-10-13T14:08:56.112Z,3.60
2022-10-13T14:11:29.554Z,3.60
2022-10-13T14:14:02.323Z,4.57
2022-10-13T14:16:33.620Z,3.75
2022-10-13T14:19:12.526Z,5.13
2022-10-13T14:21:46.940Z,3.50
2022-10-13T14:28:24.700Z,4.85
2022-10-13T14:30:59.108Z,4.88
2022-10-13T14:33:30.808Z,6.53
2022-10-13T14:36:02.522Z,7.75
2022-10-13T14:38:33.877Z,7.50
2022-10-13T14:41:12.223Z,4.75
2022-10-13T14:43:50.770Z,8.95
2022-10-13T14:46:58.242Z,5.13
2022-10-13T15:10:47.200Z,6.20
2022-10-13T15:13:19.202Z,5.50
2022-10-13T15:16:05.010Z,5.95
2022-10-13T15:19:02.807Z,7.07
2022-10-13T15:21:38.143Z,11.75
2022-10-13T15:24:15.129Z,4.35
2022-10-13T15:26:49.100Z,2.80
2022-10-13T15:30:10.422Z,5.03
2022-10-13T15:32:42.932Z,3.60
2022-10-13T15:35:13.871Z,5.63
2022-10-13T15:37:45.281Z,3.85
2022-10-13T15:40:16.657Z,6.20
2022-10-13T15:43:01.128Z,5.10
2022-10-13T15:45:33.194Z,2.90
2022-10-13T15:48:03.540Z,4.35
2022-10-13T15:50:39.467Z,6.85
2022-10-13T15:53:36.177Z,4.70
2022-10-13T15:59:07.154Z,6.68
2022-10-13T16:01:37.072Z,6.30
2022-10-13T16:04:07.529Z,4.78
2022-10-13T16:06:39.176Z,7.15
2022-10-13T16:09:09.466Z,4.60
2022-10-13T16:11:44.192Z,6.18
2022-10-13T16:14:15.691Z,4.60
2022-10-13T16:16:45.910Z,4.72
2022-10-13T16:19:23.414Z,4.32
2022-10-13T16:22:18.224Z,4.65
2022-10-13T16:24:53.739Z,5.20
2022-10-13T16:27:31.383Z,6.18
2022-10-13T16:30:09.260Z,7.95
2022-10-13T16:32:42.631Z,6.43
2022-10-13T16:35:19.825Z,5.75
2022-10-13T16:37:57.070Z,6.38
2022-10-13T16:40:32.089Z,6.35
2022-10-13T16:43:18.901Z,6.28
2022-10-13T16:46:01.011Z,6.25
2022-10-13T16:49:01.939Z,5.90
2022-10-13T16:51:44.640Z,7.03
2022-10-13T16:54:18.509Z,8.88
2022-10-13T16:57:14.687Z,7.78
2022-10-13T16:59:50.046Z,8.70
2022-10-13T17:02:26.357Z,6.80
2022-10-13T17:04:59.604Z,8.40
2022-10-13T17:07:30.835Z,7.82
2022-10-13T17:10:22.910Z,8.30
2022-10-13T17:13:29.344Z,8.60
2022-10-13T17:16:29.755Z,9.75
2022-10-13T17:19:48.971Z,7.90
2022-10-13T17:22:23.853Z,8.15
2022-10-13T17:24:57.808Z,9.02
2022-10-13T17:30:58.293Z,8.93
2022-10-13T17:33:28.861Z,12.00
2022-10-13T17:36:02.881Z,10.38
2022-10-13T17:38:34.363Z,10.73
2022-10-13T17:41:07.774Z,11.07
2022-10-13T17:43:46.646Z,13.48
2022-10-13T17:46:38.393Z,8.07
2022-10-13T17:49:22.442Z,10.77
2022-10-13T17:51:56.239Z,10.20
2022-10-13T17:54:26.429Z,13.90
2022-10-13T17:56:59.315Z,13.52
2022-10-13T17:59:30.162Z,11.80
2022-10-13T18:02:06.002Z,7.78
2022-10-13T18:05:11.992Z,10.57
2022-10-13T18:11:16.391Z,10.20
2022-10-13T18:13:52.613Z,11.13
2022-10-13T18:16:25.405Z,8.93
2022-10-13T18:19:00.753Z,12.52
2022-10-13T18:21:35.330Z,10.07
2022-10-13T18:24:14.491Z,9.88
2022-10-13T18:39:45.629Z,8.70
2022-10-13T18:42:29.778Z,10.85
2022-10-13T18:45:01.561Z,16.08
2022-10-13T18:47:34.898Z,12.57
2022-10-13T18:50:07.335Z,10.77
2022-10-13T18:52:38.637Z,12.40
2022-10-13T18:55:10.288Z,10.68
2022-10-13T18:57:41.448Z,12.85
2022-10-13T19:00:12.098Z,14.38
2022-10-13T19:02:42.070Z,10.27
2022-10-13T19:05:11.992Z,11.43
2022-10-13T19:07:43.683Z,9.45
2022-10-13T19:10:15.383Z,12.43
2022-10-13T19:12:45.534Z,12.80
2022-10-13T19:15:15.395Z,11.65
2022-10-13T19:17:45.000Z,14.55
2022-10-13T19:20:17.778Z,11.63
2022-10-13T19:22:47.314Z,16.08
2022-10-13T19:25:21.360Z,20.33
2022-10-13T19:27:51.819Z,19.35
2022-10-13T19:30:21.319Z,18.92
2022-10-13T19:32:56.316Z,16.00
2022-10-13T19:35:26.380Z,16.45
2022-10-13T19:38:00.038Z,7.97
2022-10-13T19:40:33.059Z,11.50
2022-10-13T19:43:04.108Z,8.93
2022-10-13T19:45:35.985Z,9.52
2022-10-13T19:48:12.572Z,11.30
2022-10-13T19:50:44.038Z,8.90
2022-10-13T19:53:18.702Z,7.85
2022-10-13T19:55:54.695Z,11.10
2022-10-13T19:58:30.473Z,11.73
2022-10-13T20:01:04.324Z,12.18
2022-10-13T20:03:34.554Z,8.53
2022-10-13T20:06:11.528Z,9.27
2022-10-13T20:08:47.307Z,10.63
2022-10-13T20:11:24.098Z,9.23
2022-10-13T20:13:56.660Z,9.32
2022-10-13T20:16:27.467Z,8.15
2022-10-13T20:19:03.714Z,8.90
2022-10-13T20:21:39.784Z,11.40
2022-10-13T20:24:16.908Z,12.20
2022-10-13T20:26:52.112Z,11.32
2022-10-13T20:29:27.940Z,9.40
2022-10-13T20:32:17.116Z,6.95
2022-10-13T20:34:50.533Z,8.02
2022-10-13T20:37:21.834Z,12.13
2022-10-13T20:39:55.917Z,13.60
2022-10-13T20:42:27.744Z,10.38
2022-10-13T20:44:57.470Z,11.30
2022-10-13T20:47:29.227Z,22.65
2022-10-13T20:49:58.761Z,12.73
2022-10-13T20:52:32.135Z,12.32
2022-10-13T20:55:01.645Z,12.40
2022-10-13T20:57:38.517Z,10.63
2022-10-13T21:00:12.629Z,14.93
2022-10-13T21:02:42.535Z,14.07
2022-10-13T21:05:12.096Z,15.65
2022-10-13T21:07:44.113Z,15.27
2022-10-13T21:10:15.689Z,16.05
2022-10-13T21:12:46.597Z,15.18
2022-10-13T21:15:16.196Z,15.95
2022-10-13T21:17:45.590Z,18.95
2022-10-13T21:20:16.307Z,14.68
2022-10-13T21:22:45.582Z,17.33
2022-10-13T21:25:17.269Z,16.52
2022-10-13T21:27:49.105Z,17.05
2022-10-13T21:30:19.509Z,14.00
2022-10-13T21:32:48.757Z,16.77
2022-10-13T21:35:18.671Z,16.00
2022-10-13T21:37:49.266Z,16.40
2022-10-13T21:40:19.284Z,15.88
2022-10-13T21:42:51.010Z,20.35
2022-10-13T21:45:20.625Z,26.42
2022-10-13T21:47:51.400Z,30.25
2022-10-13T21:50:25.129Z,26.60
2022-10-13T21:52:57.510Z,24.20
2022-10-13T21:55:28.997Z,19.95
2022-10-13T21:58:05.364Z,23.92
2022-10-13T22:00:38.076Z,18.88
2022-10-13T22:03:09.287Z,15.70
2022-10-13T22:05:39.639Z,16.95
2022-10-13T22:08:09.166Z,11.05
2022-10-13T22:10:44.474Z,11.98
2022-10-13T22:13:15.579Z,14.15
2022-10-13T22:15:50.619Z,12.43
2022-10-13T22:18:38.508Z,13.98
2022-10-13T22:21:12.125Z,12.20
2022-10-13T22:23:42.249Z,16.25
2022-10-13T22:26:12.391Z,13.68
2022-10-13T22:28:43.188Z,10.25
2022-10-13T22:31:14.247Z,12.98
2022-10-13T22:33:44.959Z,11.73
2022-10-13T22:36:17.285Z,12.00
2022-10-13T22:38:48.094Z,9.95
2022-10-13T22:41:19.414Z,11.00
2022-10-13T22:43:52.854Z,9.55
2022-10-13T22:46:23.737Z,9.07
2022-10-13T22:48:54.997Z,13.00
2022-10-13T22:51:25.983Z,11.50
2022-10-13T22:53:55.767Z,11.80
2022-10-13T22:56:26.795Z,12.15
2022-10-13T22:58:59.560Z,12.23
2022-10-13T23:01:30.201Z,14.48
2022-10-13T23:04:00.119Z,11.27
2022-10-13T23:06:30.999Z,14.65
2022-10-13T23:09:03.202Z,8.38
2022-10-13T23:11:32.465Z,7.97
2022-10-13T23:14:06.989Z,8.52
2022-10-13T23:16:37.400Z,10.30
2022-10-13T23:19:07.672Z,14.48
2022-10-13T23:21:36.891Z,10.70
2022-10-13T23:24:10.731Z,8.82
2022-10-13T23:26:43.726Z,12.00
2022-10-13T23:29:15.235Z,10.38
2022-10-13T23:31:44.373Z,13.90
2022-10-13T23:34:13.823Z,11.55
2022-10-13T23:36:44.132Z,11.25
2022-10-13T23:39:14.450Z,11.80
2022-10-13T23:41:44.442Z,11.40
2022-10-13T23:44:14.969Z,12.40
2022-10-13T23:46:46.526Z,12.85
2022-10-13T23:49:20.012Z,10.40
2022-10-13T23:51:49.625Z,10.13
2022-10-13T23:54:20.263Z,9.38
2022-10-13T23:56:49.662Z,10.63
2022-10-13T23:59:20.401Z,10.73
